Time;durP1;ratioP1;P1;durP2;ratioP2;P2;SDS_P1;SDS_P2;PMS_P1;PMS_P2;Temp;Humidity;BMP_temperature;BMP_pressure;BME280_temperature;BME280_humidity;BME280_pressure;Samples;Min_cycle;Max_cycle;Signal;HPM_P1;HPM_P2
2024/04/06 00:00:45;;;;;;;7.82;5.57;;;;;;;;;;5015348;28;20030;-54
2024/04/06 00:03:12;;;;;;;9.48;5.82;;;;;;;;;;5015364;28;20109;-54
2024/04/06 00:05:37;;;;;;;8.40;5.53;;;;;;;;;;5013314;28;20033;-55
2024/04/06 00:08:03;;;;;;;11.77;6.68;;;;;;;;;;5015517;28;20025;-54
2024/04/06 00:10:29;;;;;;;10.88;6.13;;;;;;;;;;5015164;28;20018;-54
2024/04/06 00:12:54;;;;;;;8.52;5.88;;;;;;;;;;5014810;28;20048;-55
2024/04/06 00:15:19;;;;;;;12.65;7.82;;;;;;;;;;5014782;28;20029;-54
2024/04/06 00:17:45;;;;;;;12.60;8.38;;;;;;;;;;5014864;28;20025;-55
2024/04/06 00:20:11;;;;;;;12.57;8.48;;;;;;;;;;5013960;28;20109;-54
2024/04/06 00:22:36;;;;;;;13.85;9.20;;;;;;;;;;5014364;28;20045;-55
2024/04/06 00:25:01;;;;;;;14.18;8.32;;;;;;;;;;5014673;28;20077;-55
2024/04/06 00:27:28;;;;;;;12.02;8.30;;;;;;;;;;5014786;28;20038;-55
2024/04/06 00:29:53;;;;;;;13.02;8.20;;;;;;;;;;5015790;28;20061;-55
2024/04/06 00:32:19;;;;;;;9.73;6.85;;;;;;;;;;5016285;28;20084;-54
2024/04/06 00:34:44;;;;;;;8.88;6.18;;;;;;;;;;5016112;28;20069;-54
2024/04/06 00:37:09;;;;;;;11.35;6.97;;;;;;;;;;5016085;28;20029;-54
2024/04/06 00:39:35;;;;;;;8.15;6.72;;;;;;;;;;5015791;28;20069;-55
2024/04/06 00:42:00;;;;;;;8.73;7.03;;;;;;;;;;5015434;28;20436;-55
2024/04/06 00:44:25;;;;;;;9.20;6.75;;;;;;;;;;5015372;28;20065;-56
2024/04/06 00:46:54;;;;;;;10.20;6.97;;;;;;;;;;5015939;28;20126;-55
2024/04/06 00:49:19;;;;;;;8.55;6.45;;;;;;;;;;5015311;28;20112;-55
2024/04/06 00:51:44;;;;;;;9.82;6.82;;;;;;;;;;5015794;28;20061;-55
2024/04/06 00:54:10;;;;;;;11.88;6.63;;;;;;;;;;5015533;28;20026;-55
2024/04/06 00:56:36;;;;;;;11.77;7.00;;;;;;;;;;5015363;28;20034;-55
2024/04/06 00:59:01;;;;;;;7.93;6.63;;;;;;;;;;5015701;28;20425;-55
2024/04/06 01:01:27;;;;;;;9.70;6.03;;;;;;;;;;5015050;28;20041;-55
2024/04/06 01:03:52;;;;;;;10.15;6.35;;;;;;;;;;5015713;28;20040;-55
2024/04/06 01:06:18;;;;;;;9.82;6.10;;;;;;;;;;5015013;28;20030;-54
2024/04/06 01:08:44;;;;;;;7.43;5.18;;;;;;;;;;5015233;28;20473;-54
2024/04/06 01:11:09;;;;;;;5.55;4.38;;;;;;;;;;5015467;28;20454;-54
2024/04/06 01:13:35;;;;;;;7.63;4.07;;;;;;;;;;5014708;28;20034;-54
2024/04/06 01:16:00;;;;;;;5.70;4.07;;;;;;;;;;4996972;28;20363;-54
2024/04/06 01:18:25;;;;;;;8.48;4.30;;;;;;;;;;5014504;28;20022;-54
2024/04/06 01:20:53;;;;;;;7.45;4.22;;;;;;;;;;5014767;28;20502;-54
2024/04/06 01:23:19;;;;;;;6.13;4.28;;;;;;;;;;5014959;28;20033;-54
2024/04/06 01:25:45;;;;;;;6.50;4.45;;;;;;;;;;5014833;28;20030;-54
2024/04/06 01:28:10;;;;;;;8.00;4.50;;;;;;;;;;5014583;28;20477;-54
2024/04/06 01:30:39;;;;;;;6.38;4.70;;;;;;;;;;5014847;28;20467;-53
2024/04/06 01:33:04;;;;;;;5.57;4.32;;;;;;;;;;5015070;28;20446;-53
2024/04/06 01:35:30;;;;;;;7.30;4.80;;;;;;;;;;5014485;28;20033;-53
2024/04/06 01:37:55;;;;;;;8.32;4.32;;;;;;;;;;5013172;28;20045;-54
2024/04/06 01:40:20;;;;;;;4.72;4.00;;;;;;;;;;5013166;28;20033;-54
2024/04/06 01:42:46;;;;;;;7.85;4.03;;;;;;;;;;5013926;28;20030;-54
2024/04/06 01:45:11;;;;;;;5.15;4.15;;;;;;;;;;5014688;28;20029;-54
2024/04/06 01:47:37;;;;;;;5.80;4.38;;;;;;;;;;5014573;28;20380;-53
2024/04/06 01:50:04;;;;;;;6.05;4.18;;;;;;;;;;5013570;28;20033;-53
2024/04/06 01:52:29;;;;;;;4.75;3.70;;;;;;;;;;4996664;28;20026;-54
2024/04/06 01:54:55;;;;;;;4.45;3.50;;;;;;;;;;5014164;28;20109;-54
2024/04/06 01:57:21;;;;;;;5.35;4.28;;;;;;;;;;5014619;28;20061;-54
2024/04/06 01:59:46;;;;;;;6.05;4.15;;;;;;;;;;5014725;28;20041;-54
2024/04/06 02:02:12;;;;;;;5.43;3.90;;;;;;;;;;5014309;28;20038;-54
2024/04/06 02:04:39;;;;;;;5.57;3.92;;;;;;;;;;5014711;28;20382;-54
2024/04/06 02:07:05;;;;;;;5.40;4.20;;;;;;;;;;5013996;28;20359;-54
2024/04/06 02:09:30;;;;;;;4.97;4.00;;;;;;;;;;4996485;28;20113;-55
2024/04/06 02:11:56;;;;;;;8.00;4.70;;;;;;;;;;5014154;28;20032;-55
2024/04/06 02:14:21;;;;;;;8.73;4.68;;;;;;;;;;5014193;28;20087;-54
2024/04/06 02:16:47;;;;;;;7.97;4.85;;;;;;;;;;5014132;28;20091;-54
2024/04/06 02:19:12;;;;;;;5.47;4.43;;;;;;;;;;5013017;28;20041;-54
2024/04/06 02:21:37;;;;;;;6.47;4.93;;;;;;;;;;5014371;28;20038;-54
2024/04/06 02:24:03;;;;;;;5.15;4.55;;;;;;;;;;4996164;28;20117;-54
2024/04/06 02:26:28;;;;;;;7.40;4.95;;;;;;;;;;5012046;28;20022;-54
2024/04/06 02:28:54;;;;;;;6.32;4.63;;;;;;;;;;5018568;28;20093;-55
2024/04/06 02:31:19;;;;;;;5.90;4.68;;;;;;;;;;5020314;28;20501;-54
2024/04/06 02:33:44;;;;;;;7.35;5.00;;;;;;;;;;5020789;28;20026;-54
2024/04/06 02:36:10;;;;;;;6.43;4.60;;;;;;;;;;5020210;28;20393;-55
2024/04/06 02:38:35;;;;;;;5.70;4.63;;;;;;;;;;5020503;28;20518;-55
2024/04/06 02:41:01;;;;;;;7.35;4.97;;;;;;;;;;5020447;28;20033;-54
2024/04/06 02:43:26;;;;;;;4.63;4.10;;;;;;;;;;5020086;28;20072;-54
2024/04/06 02:45:52;;;;;;;4.43;3.78;;;;;;;;;;5020719;28;20030;-54
2024/04/06 02:48:17;;;;;;;6.32;3.72;;;;;;;;;;5002485;28;20084;-54
2024/04/06 02:50:42;;;;;;;3.63;2.70;;;;;;;;;;5020695;28;20025;-54
2024/04/06 02:53:08;;;;;;;3.53;2.30;;;;;;;;;;5020643;28;20385;-55
2024/04/06 02:55:33;;;;;;;3.38;2.03;;;;;;;;;;5020062;28;20436;-55
2024/04/06 02:58:01;;;;;;;3.42;2.17;;;;;;;;;;5019704;28;20026;-54
2024/04/06 03:00:26;;;;;;;2.55;1.90;;;;;;;;;;5019423;28;20048;-54
2024/04/06 03:02:53;;;;;;;3.67;2.03;;;;;;;;;;5020014;28;20141;-54
2024/04/06 03:05:18;;;;;;;3.10;2.00;;;;;;;;;;5019896;28;20106;-54
2024/04/06 03:07:44;;;;;;;3.97;2.10;;;;;;;;;;5020202;28;20030;-53
2024/04/06 03:10:10;;;;;;;3.47;2.10;;;;;;;;;;5019979;28;20474;-53
2024/04/06 03:12:35;;;;;;;3.55;2.25;;;;;;;;;;5019695;28;20037;-53
2024/04/06 03:15:01;;;;;;;2.15;2.03;;;;;;;;;;5020463;28;20041;-53
2024/04/06 03:17:26;;;;;;;2.42;2.22;;;;;;;;;;5002282;28;20052;-53
2024/04/06 03:19:51;;;;;;;2.45;2.22;;;;;;;;;;5020427;28;20033;-53
2024/04/06 03:22:17;;;;;;;3.35;2.17;;;;;;;;;;5020139;28;20065;-54
2024/04/06 03:24:42;;;;;;;3.58;2.30;;;;;;;;;;5020300;28;20028;-54
2024/04/06 03:27:08;;;;;;;3.58;2.65;;;;;;;;;;5018622;28;20427;-54
2024/04/06 03:29:33;;;;;;;3.70;3.38;;;;;;;;;;5020102;28;20041;-54
2024/04/06 03:31:58;;;;;;;2.75;2.55;;;;;;;;;;5020057;28;20513;-54
2024/04/06 03:34:24;;;;;;;3.78;2.50;;;;;;;;;;5020257;28;20030;-53
2024/04/06 03:36:49;;;;;;;3.00;2.58;;;;;;;;;;5019733;28;20493;-54
2024/04/06 03:39:15;;;;;;;2.67;2.42;;;;;;;;;;5018798;28;20057;-53
2024/04/06 03:41:41;;;;;;;2.53;2.22;;;;;;;;;;5015047;28;20029;-54
2024/04/06 03:44:06;;;;;;;2.60;2.40;;;;;;;;;;5016487;28;20382;-54
2024/04/06 03:46:31;;;;;;;4.30;2.10;;;;;;;;;;5016802;28;20029;-54
2024/04/06 03:48:57;;;;;;;2.67;2.47;;;;;;;;;;4998842;28;20441;-54
2024/04/06 03:51:23;;;;;;;2.90;2.10;;;;;;;;;;5016708;28;20026;-54
2024/04/06 03:53:49;;;;;;;2.58;2.30;;;;;;;;;;5015740;28;20024;-54
2024/04/06 03:56:14;;;;;;;4.78;2.05;;;;;;;;;;5016623;28;20428;-54
2024/04/06 03:58:39;;;;;;;3.53;2.22;;;;;;;;;;5016587;28;20072;-55
2024/04/06 04:01:05;;;;;;;2.20;2.00;;;;;;;;;;5016802;28;20033;-54
2024/04/06 04:03:30;;;;;;;2.83;2.50;;;;;;;;;;5016135;28;20390;-54
2024/04/06 04:05:56;;;;;;;3.95;2.20;;;;;;;;;;5016414;28;20417;-54
2024/04/06 04:08:21;;;;;;;3.80;2.30;;;;;;;;;;5016399;28;20034;-54
2024/04/06 04:10:46;;;;;;;2.13;1.92;;;;;;;;;;5016602;28;20339;-54
2024/04/06 04:13:12;;;;;;;2.17;1.98;;;;;;;;;;5015863;28;20053;-54
2024/04/06 04:15:38;;;;;;;2.70;1.60;;;;;;;;;;5015690;28;20026;-54
2024/04/06 04:18:04;;;;;;;1.98;1.38;;;;;;;;;;5016096;28;20038;-54
2024/04/06 04:20:30;;;;;;;1.40;1.30;;;;;;;;;;5016559;28;20033;-54
2024/04/06 04:22:55;;;;;;;2.10;1.30;;;;;;;;;;5015988;28;20089;-54
2024/04/06 04:25:21;;;;;;;1.45;1.35;;;;;;;;;;5014466;28;20022;-54
2024/04/06 04:27:46;;;;;;;1.30;1.00;;;;;;;;;;5015986;28;20034;-54
2024/04/06 04:30:14;;;;;;;1.85;1.10;;;;;;;;;;5015717;28;20061;-54
2024/04/06 04:32:40;;;;;;;1.48;1.00;;;;;;;;;;5015567;28;20083;-54
2024/04/06 04:35:05;;;;;;;0.90;0.90;;;;;;;;;;5015870;28;20478;-54
2024/04/06 04:37:30;;;;;;;1.05;0.95;;;;;;;;;;5015559;28;20104;-54
2024/04/06 04:39:57;;;;;;;1.33;0.80;;;;;;;;;;5015605;28;20033;-54
2024/04/06 04:42:22;;;;;;;2.13;0.82;;;;;;;;;;4998344;28;20052;-54
2024/04/06 04:44:48;;;;;;;3.17;1.10;;;;;;;;;;5015307;28;20490;-53
2024/04/06 04:47:13;;;;;;;1.10;1.00;;;;;;;;;;5016097;28;20116;-54
2024/04/06 04:49:39;;;;;;;1.42;1.05;;;;;;;;;;5015601;28;20084;-53
2024/04/06 04:52:04;;;;;;;2.00;0.90;;;;;;;;;;5015398;28;20097;-53
2024/04/06 04:54:30;;;;;;;1.40;1.30;;;;;;;;;;5015540;28;20108;-54
2024/04/06 04:56:57;;;;;;;2.03;1.08;;;;;;;;;;5014005;28;20034;-54
2024/04/06 04:59:23;;;;;;;1.05;0.90;;;;;;;;;;5015453;28;20075;-54
2024/04/06 05:01:49;;;;;;;1.85;1.13;;;;;;;;;;5015413;28;20018;-54
2024/04/06 05:04:14;;;;;;;1.00;0.95;;;;;;;;;;5015490;28;20033;-54
2024/04/06 05:06:40;;;;;;;1.20;1.10;;;;;;;;;;5015244;28;20026;-54
2024/04/06 05:09:09;;;;;;;0.90;0.90;;;;;;;;;;5015245;28;20049;-54
2024/04/06 05:11:34;;;;;;;1.13;1.02;;;;;;;;;;5015185;28;20037;-53
2024/04/06 05:14:00;;;;;;;1.30;1.20;;;;;;;;;;5014635;28;20047;-53
2024/04/06 05:16:26;;;;;;;1.23;1.13;;;;;;;;;;5015467;28;20053;-54
2024/04/06 05:18:51;;;;;;;1.83;1.20;;;;;;;;;;5013902;28;20053;-53
2024/04/06 05:21:17;;;;;;;1.30;1.20;;;;;;;;;;5014729;28;20045;-54
2024/04/06 05:23:42;;;;;;;1.50;1.17;;;;;;;;;;5013369;28;20025;-53
2024/04/06 05:26:08;;;;;;;1.33;1.23;;;;;;;;;;5014664;28;20382;-53
2024/04/06 05:28:36;;;;;;;1.58;1.10;;;;;;;;;;4997039;28;20059;-56
2024/04/06 05:31:02;;;;;;;1.98;1.02;;;;;;;;;;5013997;28;20030;-53
2024/04/06 05:33:27;;;;;;;1.02;0.98;;;;;;;;;;5014748;28;20033;-53
2024/04/06 05:35:53;;;;;;;1.77;0.95;;;;;;;;;;5014502;28;20429;-53
2024/04/06 05:38:21;;;;;;;2.35;1.02;;;;;;;;;;5015144;28;20022;-54
2024/04/06 05:40:46;;;;;;;2.55;0.90;;;;;;;;;;4997389;28;20083;-54
2024/04/06 05:43:12;;;;;;;1.95;1.13;;;;;;;;;;5014326;28;20428;-54
2024/04/06 05:45:41;;;;;;;0.85;0.85;;;;;;;;;;5014472;28;20490;-54
2024/04/06 05:48:08;;;;;;;2.08;1.00;;;;;;;;;;5014296;28;20022;-54
2024/04/06 05:50:34;;;;;;;1.17;0.93;;;;;;;;;;5014491;28;20037;-53
2024/04/06 05:53:00;;;;;;;1.75;1.20;;;;;;;;;;5013704;28;20032;-54
2024/04/06 05:55:26;;;;;;;1.48;1.20;;;;;;;;;;5013710;28;20021;-54
2024/04/06 05:57:52;;;;;;;1.10;1.00;;;;;;;;;;4996520;28;20037;-54
2024/04/06 06:00:17;;;;;;;1.10;1.00;;;;;;;;;;5014737;28;20025;-54
2024/04/06 06:02:43;;;;;;;2.65;1.35;;;;;;;;;;5013475;28;20482;-54
2024/04/06 06:05:09;;;;;;;1.20;1.10;;;;;;;;;;5014346;28;20018;-54
2024/04/06 06:07:36;;;;;;;2.22;1.25;;;;;;;;;;4995337;28;20025;-54
2024/04/06 06:10:02;;;;;;;1.42;1.20;;;;;;;;;;5013195;28;20064;-54
2024/04/06 06:12:28;;;;;;;2.15;1.20;;;;;;;;;;5012828;28;20049;-54
2024/04/06 06:14:53;;;;;;;2.78;1.20;;;;;;;;;;4995360;28;20038;-54
2024/04/06 06:17:19;;;;;;;1.02;0.82;;;;;;;;;;5013023;28;20125;-53
2024/04/06 06:19:44;;;;;;;2.25;1.00;;;;;;;;;;5013046;28;20100;-54
2024/04/06 06:22:10;;;;;;;3.33;1.30;;;;;;;;;;5014011;28;20029;-54
2024/04/06 06:24:35;;;;;;;2.08;1.38;;;;;;;;;;5007898;28;20037;-54
2024/04/06 06:27:00;;;;;;;1.50;1.40;;;;;;;;;;5013452;28;20033;-54
2024/04/06 06:29:26;;;;;;;1.52;1.17;;;;;;;;;;5012671;28;20037;-54
2024/04/06 06:31:52;;;;;;;1.40;1.30;;;;;;;;;;5012138;28;20026;-54
2024/04/06 06:34:19;;;;;;;1.30;1.20;;;;;;;;;;5013486;28;20363;-54
2024/04/06 06:36:45;;;;;;;1.27;1.08;;;;;;;;;;5013405;28;20546;-54
2024/04/06 06:39:11;;;;;;;1.88;1.25;;;;;;;;;;5013246;28;20117;-54
2024/04/06 06:41:36;;;;;;;1.98;1.10;;;;;;;;;;4995668;28;20013;-54
2024/04/06 06:44:01;;;;;;;2.05;1.10;;;;;;;;;;5013320;28;20113;-54
2024/04/06 06:46:27;;;;;;;1.58;1.35;;;;;;;;;;5013414;28;20057;-54
2024/04/06 06:48:52;;;;;;;1.48;1.10;;;;;;;;;;5013565;28;20030;-54
2024/04/06 06:51:18;;;;;;;1.60;1.33;;;;;;;;;;5012209;28;20084;-53
2024/04/06 06:53:43;;;;;;;2.17;1.98;;;;;;;;;;5013333;28;20045;-55
2024/04/06 06:56:08;;;;;;;3.15;2.85;;;;;;;;;;5013850;28;20084;-57
2024/04/06 06:58:34;;;;;;;2.83;1.75;;;;;;;;;;5013284;28;20029;-54
2024/04/06 07:01:03;;;;;;;2.30;1.75;;;;;;;;;;5013573;28;20029;-54
2024/04/06 07:03:29;;;;;;;3.47;1.45;;;;;;;;;;5013531;28;20017;-54
2024/04/06 07:05:59;;;;;;;2.75;1.20;;;;;;;;;;5013824;28;20052;-54
2024/04/06 07:08:25;;;;;;;1.35;1.17;;;;;;;;;;5013600;28;20032;-54
2024/04/06 07:10:52;;;;;;;1.73;1.63;;;;;;;;;;5013453;28;20038;-54
2024/04/06 07:13:20;;;;;;;2.28;1.05;;;;;;;;;;5012974;28;20109;-54
2024/04/06 07:15:45;;;;;;;1.73;1.10;;;;;;;;;;5013858;28;20033;-54
2024/04/06 07:18:11;;;;;;;2.35;1.17;;;;;;;;;;5016687;28;20037;-54
2024/04/06 07:20:36;;;;;;;3.35;1.40;;;;;;;;;;5017108;28;20042;-58
2024/04/06 07:23:01;;;;;;;1.67;1.42;;;;;;;;;;5017051;28;20022;-54
2024/04/06 07:25:27;;;;;;;2.45;1.67;;;;;;;;;;5015429;28;20432;-58
2024/04/06 07:27:53;;;;;;;1.83;1.30;;;;;;;;;;5016744;28;20050;-54
2024/04/06 07:30:19;;;;;;;1.38;1.20;;;;;;;;;;5016863;28;20064;-58
2024/04/06 07:32:57;;;;;;;2.28;1.48;;;;;;;;;;4982629;28;20471;-59
2024/04/06 07:35:26;;;;;;;2.50;1.30;;;;;;;;;;5016270;28;20083;-54
2024/04/06 07:37:51;;;;;;;2.35;1.30;;;;;;;;;;5016365;28;20037;-58
2024/04/06 07:40:16;;;;;;;2.03;1.25;;;;;;;;;;5016263;28;20045;-54
2024/04/06 07:42:43;;;;;;;3.47;1.42;;;;;;;;;;5016716;28;20033;-54
2024/04/06 07:45:09;;;;;;;1.42;1.02;;;;;;;;;;5016134;28;20022;-56
2024/04/06 07:47:39;;;;;;;2.85;1.02;;;;;;;;;;4997685;28;20120;-56
2024/04/06 07:50:10;;;;;;;0.93;0.93;;;;;;;;;;4998376;28;20037;-56
2024/04/06 07:52:41;;;;;;;2.75;1.42;;;;;;;;;;5000181;28;20022;-55
2024/04/06 07:55:07;;;;;;;3.15;1.10;;;;;;;;;;4998453;28;20041;-56
2024/04/06 07:57:35;;;;;;;1.33;1.13;;;;;;;;;;4997793;28;20034;-56
2024/04/06 08:00:01;;;;;;;1.27;0.90;;;;;;;;;;4982229;28;20096;-56
2024/04/06 08:02:32;;;;;;;1.70;1.00;;;;;;;;;;5015952;28;20073;-56
2024/04/06 08:04:58;;;;;;;1.63;1.13;;;;;;;;;;4998685;28;20033;-56
2024/04/06 08:07:25;;;;;;;2.15;1.10;;;;;;;;;;4998662;28;20061;-56
2024/04/06 08:09:56;;;;;;;1.70;1.00;;;;;;;;;;4999088;28;20030;-56
2024/04/06 08:12:26;;;;;;;1.10;0.90;;;;;;;;;;4992485;28;20050;-56
2024/04/06 08:14:54;;;;;;;1.05;0.90;;;;;;;;;;4995989;28;20034;-55
2024/04/06 08:17:21;;;;;;;0.88;0.80;;;;;;;;;;4978598;28;20047;-55
2024/04/06 08:19:49;;;;;;;2.03;1.00;;;;;;;;;;4979051;28;20066;-56
2024/04/06 08:22:16;;;;;;;2.25;1.00;;;;;;;;;;4994525;28;20054;-56
2024/04/06 08:24:49;;;;;;;5.35;1.27;;;;;;;;;;4995228;28;20125;-56
2024/04/06 08:27:16;;;;;;;1.67;0.90;;;;;;;;;;4995191;28;20022;-56
2024/04/06 08:29:44;;;;;;;1.65;0.90;;;;;;;;;;4994684;28;20037;-56
2024/04/06 08:32:13;;;;;;;1.63;0.90;;;;;;;;;;4994334;28;20034;-56
2024/04/06 08:34:43;;;;;;;0.80;0.75;;;;;;;;;;4994534;28;20041;-56
2024/04/06 08:37:09;;;;;;;0.88;0.82;;;;;;;;;;4994242;28;20050;-56
2024/04/06 08:39:36;;;;;;;2.33;1.23;;;;;;;;;;4994293;28;20034;-56
2024/04/06 08:42:03;;;;;;;2.00;1.08;;;;;;;;;;4978013;28;20093;-56
2024/04/06 08:44:38;;;;;;;2.08;0.80;;;;;;;;;;4995319;28;20035;-56
2024/04/06 08:47:04;;;;;;;2.22;0.80;;;;;;;;;;4995326;28;20070;-56
2024/04/06 08:49:32;;;;;;;2.28;1.20;;;;;;;;;;4995784;28;20023;-56
2024/04/06 08:52:04;;;;;;;2.60;0.82;;;;;;;;;;4996095;28;20027;-56
2024/04/06 08:54:31;;;;;;;1.35;0.70;;;;;;;;;;4995400;28;20105;-56
2024/04/06 08:57:01;;;;;;;1.55;1.00;;;;;;;;;;4981237;28;20121;-56
2024/04/06 08:59:33;;;;;;;2.47;0.70;;;;;;;;;;4993953;28;20027;-56
2024/04/06 09:01:59;;;;;;;2.08;1.00;;;;;;;;;;4994325;28;20068;-56
2024/04/06 09:04:25;;;;;;;0.95;0.65;;;;;;;;;;4976933;28;20050;-56
2024/04/06 09:06:50;;;;;;;1.85;0.75;;;;;;;;;;4994276;28;20489;-56
2024/04/06 09:09:16;;;;;;;3.33;0.80;;;;;;;;;;4993998;28;20061;-56
2024/04/06 09:11:45;;;;;;;1.10;0.98;;;;;;;;;;4994783;28;20431;-56
2024/04/06 09:14:11;;;;;;;1.38;0.90;;;;;;;;;;4993570;28;20042;-56
2024/04/06 09:16:43;;;;;;;1.60;0.88;;;;;;;;;;4992850;28;20088;-56
2024/04/06 09:19:09;;;;;;;1.20;0.90;;;;;;;;;;4991852;28;20567;-56
2024/04/06 09:21:34;;;;;;;1.50;0.85;;;;;;;;;;4993130;28;20027;-56
2024/04/06 09:24:01;;;;;;;1.42;0.60;;;;;;;;;;4992611;28;20050;-56
2024/04/06 09:26:35;;;;;;;1.13;0.80;;;;;;;;;;5007992;28;20475;-56
2024/04/06 09:29:01;;;;;;;1.60;0.88;;;;;;;;;;4992744;28;20114;-56
2024/04/06 09:31:27;;;;;;;2.00;1.02;;;;;;;;;;4994243;28;20417;-56
2024/04/06 09:33:53;;;;;;;4.32;1.10;;;;;;;;;;4994391;28;20037;-56
2024/04/06 09:36:22;;;;;;;1.20;0.80;;;;;;;;;;4994405;28;20069;-55
2024/04/06 09:38:48;;;;;;;1.13;0.60;;;;;;;;;;4993604;28;20033;-56
2024/04/06 09:41:17;;;;;;;1.85;0.60;;;;;;;;;;4994151;28;20375;-56
2024/04/06 09:43:45;;;;;;;0.70;0.70;;;;;;;;;;4994261;28;20034;-56
2024/04/06 09:46:11;;;;;;;2.17;0.85;;;;;;;;;;4994339;28;20022;-56
2024/04/06 09:48:41;;;;;;;2.55;0.85;;;;;;;;;;4989304;28;20030;-56
2024/04/06 09:51:07;;;;;;;1.38;0.70;;;;;;;;;;4989476;28;20112;-56
2024/04/06 09:53:33;;;;;;;0.93;0.85;;;;;;;;;;5006940;28;20497;-56
2024/04/06 09:55:59;;;;;;;1.25;0.60;;;;;;;;;;4992996;28;20458;-56
2024/04/06 09:58:28;;;;;;;0.93;0.70;;;;;;;;;;4990769;28;20065;-56
2024/04/06 10:00:55;;;;;;;0.90;0.70;;;;;;;;;;5022202;28;20038;-56
2024/04/06 10:03:21;;;;;;;0.77;0.70;;;;;;;;;;4992796;28;20026;-55
2024/04/06 10:05:46;;;;;;;2.17;0.68;;;;;;;;;;4991617;28;20073;-55
2024/04/06 10:08:13;;;;;;;0.88;0.88;;;;;;;;;;4990815;28;20049;-56
2024/04/06 10:10:45;;;;;;;0.65;0.65;;;;;;;;;;4993146;28;20541;-56
2024/04/06 10:13:17;;;;;;;1.40;0.70;;;;;;;;;;5002361;28;20075;-56
2024/04/06 10:15:43;;;;;;;2.70;0.82;;;;;;;;;;5011197;28;20022;-56
2024/04/06 10:18:09;;;;;;;1.15;0.60;;;;;;;;;;5012545;28;20501;-56
2024/04/06 10:20:34;;;;;;;0.90;0.70;;;;;;;;;;5010558;28;20033;-56
2024/04/06 10:23:00;;;;;;;2.83;0.73;;;;;;;;;;5009860;28;20041;-56
2024/04/06 10:25:34;;;;;;;1.10;0.70;;;;;;;;;;4993704;28;20433;-56
2024/04/06 10:28:07;;;;;;;3.33;0.77;;;;;;;;;;5012483;28;20546;-56
2024/04/06 10:30:37;;;;;;;2.35;0.90;;;;;;;;;;5001986;28;20034;-56
2024/04/06 10:33:02;;;;;;;0.83;0.73;;;;;;;;;;5006249;28;20030;-56
2024/04/06 10:35:28;;;;;;;1.50;0.93;;;;;;;;;;5004625;28;20088;-56
2024/04/06 10:37:55;;;;;;;1.35;0.88;;;;;;;;;;5010057;28;20026;-56
2024/04/06 10:40:23;;;;;;;1.23;0.75;;;;;;;;;;4999607;28;20474;-56
2024/04/06 10:42:50;;;;;;;0.93;0.70;;;;;;;;;;5011960;28;20030;-55
2024/04/06 10:45:16;;;;;;;1.65;0.82;;;;;;;;;;4999216;28;20089;-56
2024/04/06 10:47:43;;;;;;;1.13;0.60;;;;;;;;;;5007930;28;20080;-56
2024/04/06 10:50:09;;;;;;;2.22;0.77;;;;;;;;;;5014307;28;20044;-56
2024/04/06 10:52:36;;;;;;;1.48;0.85;;;;;;;;;;5013116;28;20025;-56
2024/04/06 10:55:09;;;;;;;0.98;0.70;;;;;;;;;;5014449;28;21611;-56
2024/04/06 10:57:37;;;;;;;1.73;0.77;;;;;;;;;;5014883;28;20038;-56
2024/04/06 11:00:08;;;;;;;0.70;0.70;;;;;;;;;;5010800;28;20474;-55
2024/04/06 11:02:33;;;;;;;;;;;;;;;;;;5014487;28;20037;-56
2024/04/06 11:05:00;;;;;;;1.95;1.35;;;;;;;;;;5015273;28;19936;-56
2024/04/06 11:07:25;;;;;;;4.43;0.90;;;;;;;;;;5015085;28;20029;-56
2024/04/06 11:09:51;;;;;;;1.90;1.17;;;;;;;;;;5014891;28;20034;-55
2024/04/06 11:12:17;;;;;;;2.20;0.75;;;;;;;;;;5015635;28;20046;-55
2024/04/06 11:14:43;;;;;;;0.77;0.77;;;;;;;;;;5009052;28;20037;-56
2024/04/06 11:17:10;;;;;;;5.28;0.90;;;;;;;;;;5015510;28;20513;-56
2024/04/06 11:19:36;;;;;;;1.35;0.90;;;;;;;;;;5015530;28;20061;-56
2024/04/06 11:22:05;;;;;;;1.35;0.80;;;;;;;;;;5011773;28;20036;-59
2024/04/06 11:24:31;;;;;;;1.90;1.13;;;;;;;;;;4998376;28;20402;-60
2024/04/06 11:27:06;;;;;;;2.83;0.95;;;;;;;;;;5014300;28;20619;-60
2024/04/06 11:29:32;;;;;;;1.08;0.90;;;;;;;;;;5011076;28;20390;-61
2024/04/06 11:31:59;;;;;;;1.58;0.77;;;;;;;;;;5013315;28;20026;-61
2024/04/06 11:34:24;;;;;;;2.28;1.02;;;;;;;;;;5011149;28;20030;-60
2024/04/06 11:36:50;;;;;;;1.27;0.95;;;;;;;;;;5006212;28;20048;-62
2024/04/06 11:39:15;;;;;;;1.77;0.95;;;;;;;;;;5012899;28;20041;-60
2024/04/06 11:41:41;;;;;;;0.80;0.80;;;;;;;;;;5011981;28;20034;-62
2024/04/06 11:44:06;;;;;;;1.85;1.25;;;;;;;;;;5010622;28;20389;-60
2024/04/06 11:46:34;;;;;;;3.13;1.20;;;;;;;;;;5012513;28;20033;-60
2024/04/06 11:48:59;;;;;;;2.97;1.30;;;;;;;;;;5012492;28;20022;-61
2024/04/06 11:51:24;;;;;;;5.93;1.20;;;;;;;;;;4996444;28;20040;-61
2024/04/06 11:53:50;;;;;;;2.63;1.15;;;;;;;;;;5010127;28;20026;-61
2024/04/06 11:56:16;;;;;;;1.30;0.95;;;;;;;;;;4996393;28;20029;-61
2024/04/06 11:58:41;;;;;;;3.00;1.38;;;;;;;;;;5011800;28;20929;-62
2024/04/06 12:01:06;;;;;;;1.30;1.20;;;;;;;;;;5011656;28;20208;-61
2024/04/06 12:03:32;;;;;;;2.17;1.00;;;;;;;;;;5013521;28;20026;-61
2024/04/06 12:05:57;;;;;;;3.28;1.05;;;;;;;;;;5014672;28;20129;-61
2024/04/06 12:08:23;;;;;;;1.23;1.02;;;;;;;;;;5013764;28;20030;-61
2024/04/06 12:10:48;;;;;;;1.90;1.10;;;;;;;;;;5015474;28;20049;-61
2024/04/06 12:13:13;;;;;;;2.13;1.02;;;;;;;;;;5015500;28;20124;-61
2024/04/06 12:15:40;;;;;;;0.60;0.60;;;;;;;;;;5013506;28;20025;-60
2024/04/06 12:18:08;;;;;;;2.92;1.00;;;;;;;;;;5015712;28;20030;-59
2024/04/06 12:20:33;;;;;;;2.38;0.82;;;;;;;;;;5015596;28;20022;-59
2024/04/06 12:22:59;;;;;;;0.65;0.65;;;;;;;;;;5015894;28;20057;-59
2024/04/06 12:25:24;;;;;;;2.88;1.15;;;;;;;;;;5015847;28;20042;-58
2024/04/06 12:27:50;;;;;;;1.20;0.98;;;;;;;;;;5014904;28;20033;-55
2024/04/06 12:30:15;;;;;;;1.33;0.95;;;;;;;;;;5012948;28;20061;-59
2024/04/06 12:32:40;;;;;;;2.05;0.95;;;;;;;;;;4998073;28;20104;-56
2024/04/06 12:35:06;;;;;;;2.17;0.95;;;;;;;;;;4997644;28;20053;-60
2024/04/06 12:37:34;;;;;;;1.90;0.85;;;;;;;;;;5015170;28;20029;-60
2024/04/06 12:39:59;;;;;;;1.27;0.82;;;;;;;;;;4997610;28;20393;-56
2024/04/06 12:42:24;;;;;;;1.73;0.95;;;;;;;;;;5014919;28;20037;-55
2024/04/06 12:44:50;;;;;;;2.42;1.00;;;;;;;;;;4981543;28;20547;-54
2024/04/06 12:47:15;;;;;;;3.60;0.82;;;;;;;;;;4997599;28;20048;-53
2024/04/06 12:49:41;;;;;;;1.30;0.80;;;;;;;;;;5007269;28;20030;-53
2024/04/06 12:52:07;;;;;;;1.27;1.00;;;;;;;;;;4995471;28;20066;-53
2024/04/06 12:54:32;;;;;;;2.00;1.17;;;;;;;;;;5014526;28;20484;-53
2024/04/06 12:59:41;;;;;;;1.40;0.90;;;;;;;;;;5014666;28;20030;-54
2024/04/06 13:02:07;;;;;;;1.35;0.80;;;;;;;;;;4997164;28;20038;-54
2024/04/06 13:04:33;;;;;;;1.10;0.80;;;;;;;;;;4996999;28;20038;-54
2024/04/06 13:06:58;;;;;;;1.75;0.70;;;;;;;;;;5014987;28;20022;-54
2024/04/06 13:09:24;;;;;;;1.40;0.80;;;;;;;;;;5014874;28;20513;-54
2024/04/06 13:11:50;;;;;;;2.97;0.80;;;;;;;;;;5014474;28;20050;-55
2024/04/06 13:14:16;;;;;;;0.70;0.70;;;;;;;;;;5014449;28;20057;-55
2024/04/06 13:16:41;;;;;;;0.75;0.70;;;;;;;;;;4997201;28;20041;-55
2024/04/06 13:19:07;;;;;;;0.80;0.80;;;;;;;;;;5014525;28;20034;-54
2024/04/06 13:21:33;;;;;;;1.13;0.85;;;;;;;;;;5029525;28;20029;-54
2024/04/06 13:23:58;;;;;;;1.48;1.00;;;;;;;;;;5013309;28;20042;-55
2024/04/06 13:26:24;;;;;;;2.53;0.90;;;;;;;;;;5014611;28;20076;-55
2024/04/06 13:28:49;;;;;;;1.35;0.65;;;;;;;;;;5014005;28;20501;-55
2024/04/06 13:31:15;;;;;;;0.90;0.80;;;;;;;;;;4980338;28;20480;-55
2024/04/06 13:33:43;;;;;;;1.75;0.90;;;;;;;;;;5012732;28;20037;-55
2024/04/06 13:36:09;;;;;;;1.83;0.88;;;;;;;;;;5014174;28;20120;-54
2024/04/06 13:38:36;;;;;;;3.13;1.10;;;;;;;;;;5014016;28;20026;-54
2024/04/06 13:41:05;;;;;;;2.57;0.90;;;;;;;;;;5013849;28;20050;-55
2024/04/06 13:43:31;;;;;;;1.38;0.65;;;;;;;;;;5014231;28;20277;-54
2024/04/06 13:45:59;;;;;;;2.25;0.93;;;;;;;;;;4996058;28;20477;-55
2024/04/06 13:48:24;;;;;;;1.58;0.93;;;;;;;;;;5011360;28;20038;-55
2024/04/06 13:50:56;;;;;;;4.82;3.35;;;;;;;;;;5013022;28;20029;-55
2024/04/06 13:53:21;;;;;;;2.17;1.13;;;;;;;;;;5014130;28;20036;-54
2024/04/06 13:55:50;;;;;;;2.65;0.80;;;;;;;;;;4997147;28;20443;-55
2024/04/06 13:58:16;;;;;;;32.20;24.85;;;;;;;;;;5012628;28;20041;-55
2024/04/06 14:00:41;;;;;;;1.88;1.60;;;;;;;;;;4979840;28;20021;-55
2024/04/06 14:03:07;;;;;;;5.15;3.50;;;;;;;;;;4996356;28;20030;-55
2024/04/06 14:05:33;;;;;;;10.95;6.82;;;;;;;;;;4996097;28;20029;-54
2024/04/06 14:07:58;;;;;;;13.73;10.23;;;;;;;;;;4995996;28;20486;-54
2024/04/06 14:10:24;;;;;;;2.85;1.88;;;;;;;;;;4995906;28;20367;-54
2024/04/06 14:12:49;;;;;;;10.82;8.05;;;;;;;;;;5013319;28;20038;-54
2024/04/06 14:15:15;;;;;;;17.30;15.50;;;;;;;;;;5012346;28;20038;-54
2024/04/06 14:17:41;;;;;;;7.70;7.00;;;;;;;;;;4996046;28;20029;-54
2024/04/06 14:20:10;;;;;;;9.93;8.80;;;;;;;;;;5011341;28;20485;-54
2024/04/06 14:22:36;;;;;;;3.72;3.53;;;;;;;;;;5013036;28;20037;-54
2024/04/06 14:25:01;;;;;;;3.25;2.97;;;;;;;;;;5013108;28;20048;-56
2024/04/06 14:27:27;;;;;;;21.50;18.77;;;;;;;;;;5013419;28;20058;-56
2024/04/06 14:30:01;;;;;;;8.77;7.97;;;;;;;;;;4996134;28;20030;-56
2024/04/06 14:32:26;;;;;;;7.18;6.40;;;;;;;;;;5013378;28;20026;-56
2024/04/06 14:34:52;;;;;;;4.47;4.18;;;;;;;;;;5013617;28;20041;-56
2024/04/06 14:37:17;;;;;;;15.98;14.32;;;;;;;;;;4994098;28;20533;-56
2024/04/06 14:39:43;;;;;;;3.10;2.33;;;;;;;;;;4993643;28;20062;-55